Time;durP1;ratioP1;P1;durP2;ratioP2;P2;SDS_P1;SDS_P2;PMS_P1;PMS_P2;Temp;Humidity;BMP_temperature;BMP_pressure;BME280_temperature;BME280_humidity;BME280_pressure;Samples;Min_cycle;Max_cycle;Signal;HPM_P1;HPM_P2
2023/08/14 00:01:08;;;;;;;9.50;4.18;;;;;;;16.00;100.00;101593.84;5264119;28;20271;-71
2023/08/14 00:03:39;;;;;;;6.97;4.40;;;;;;;15.94;100.00;101589.19;5263976;28;20381;-71
2023/08/14 00:06:10;;;;;;;9.50;4.82;;;;;;;15.89;100.00;101590.75;5263511;28;20115;-71
2023/08/14 00:08:41;;;;;;;10.00;5.00;;;;;;;15.92;100.00;101596.66;5264208;28;20119;-71
2023/08/14 00:11:11;;;;;;;17.73;5.60;;;;;;;15.91;100.00;101589.53;5276965;28;20107;-71
2023/08/14 00:13:59;;;;;;;13.40;5.07;;;;;;;15.82;100.00;101593.34;5277315;28;20539;-71
2023/08/14 00:16:29;;;;;;;16.30;6.25;;;;;;;15.77;100.00;101587.66;5278205;28;20032;-71
2023/08/14 00:19:00;;;;;;;21.23;4.82;;;;;;;15.70;100.00;101590.22;5267570;28;20024;-71
2023/08/14 00:21:31;;;;;;;14.48;4.50;;;;;;;15.69;100.00;101585.00;5263588;28;20027;-71
2023/08/14 00:24:02;;;;;;;110.30;7.35;;;;;;;15.64;100.00;101593.66;5263463;28;20136;-71
2023/08/14 00:26:32;;;;;;;12.30;3.60;;;;;;;15.58;100.00;101588.94;5263208;28;20023;-71
2023/08/14 00:29:03;;;;;;;17.55;3.47;;;;;;;15.52;100.00;101589.69;5263523;28;20412;-71
2023/08/14 00:31:34;;;;;;;32.28;4.55;;;;;;;15.49;100.00;101582.75;5271191;28;20377;-71
2023/08/14 00:34:04;;;;;;;5.50;2.55;;;;;;;15.43;100.00;101583.50;5250287;28;20020;-71
2023/08/14 00:36:35;;;;;;;8.32;2.90;;;;;;;15.40;100.00;101585.69;5266661;28;20032;-70
2023/08/14 00:39:05;;;;;;;99.93;6.03;;;;;;;15.35;100.00;101577.28;5267315;28;20024;-71
2023/08/14 00:41:37;;;;;;;6.63;3.17;;;;;;;15.30;100.00;101583.22;5267777;28;20109;-71
2023/08/14 00:44:07;;;;;;;16.58;3.55;;;;;;;15.27;100.00;101576.34;5267210;28;20063;-71
2023/08/14 00:46:38;;;;;;;10.13;3.50;;;;;;;15.24;100.00;101579.38;5266831;28;20022;-71
2023/08/14 00:49:09;;;;;;;6.15;3.63;;;;;;;15.25;100.00;101577.53;5267403;28;20028;-71
2023/08/14 00:51:39;;;;;;;5.97;3.53;;;;;;;15.25;100.00;101567.56;5267339;28;20028;-71
2023/08/14 00:54:10;;;;;;;8.70;3.78;;;;;;;15.25;100.00;101567.56;5267404;28;20505;-71
2023/08/14 00:56:41;;;;;;;4.28;2.85;;;;;;;15.25;100.00;101559.44;5266365;28;20055;-71
2023/08/14 00:59:12;;;;;;;4.40;2.70;;;;;;;15.28;100.00;101553.69;5267247;28;20078;-71
2023/08/14 01:01:42;;;;;;;7.35;3.53;;;;;;;15.31;100.00;101549.75;5249334;28;20489;-71
2023/08/14 01:04:13;;;;;;;9.68;4.85;;;;;;;15.33;100.00;101555.00;5268189;28;20085;-71
2023/08/14 01:06:43;;;;;;;7.78;3.47;;;;;;;15.32;100.00;101554.19;5279091;28;20077;-71
2023/08/14 01:09:14;;;;;;;7.20;3.45;;;;;;;15.30;100.00;101542.69;5270363;28;20022;-71
2023/08/14 01:12:00;;;;;;;9.20;3.75;;;;;;;15.32;100.00;101543.38;5276882;28;20024;-71
2023/08/14 01:14:32;;;;;;;7.72;4.45;;;;;;;15.34;100.00;101544.00;5266998;28;20501;-71
2023/08/14 01:17:08;;;;;;;8.35;3.90;;;;;;;15.33;100.00;101544.19;5284738;28;20388;-71
2023/08/14 01:19:41;;;;;;;7.88;4.18;;;;;;;15.28;100.00;101539.34;5266477;28;20026;-71
2023/08/14 01:22:47;;;;;;;7.20;4.28;;;;;;;15.23;100.00;101531.75;5266721;28;20035;-71
2023/08/14 01:25:31;;;;;;;8.75;4.25;;;;;;;15.18;100.00;101526.06;5266389;28;20050;-71
2023/08/14 01:28:05;;;;;;;7.40;4.80;;;;;;;15.15;100.00;101521.00;5266058;28;20146;-71
2023/08/14 01:30:36;;;;;;;12.10;6.00;;;;;;;15.10;100.00;101519.84;5266610;28;20073;-71
2023/08/14 01:33:06;;;;;;;5.40;3.00;;;;;;;15.07;100.00;101521.06;5266669;28;20032;-71
2023/08/14 01:35:42;;;;;;;14.10;4.78;;;;;;;15.03;100.00;101525.97;5266248;28;20047;-71
2023/08/14 01:38:20;;;;;;;14.90;5.32;;;;;;;14.99;100.00;101532.75;5266300;28;20024;-71
2023/08/14 01:41:07;;;;;;;10.30;3.83;;;;;;;14.97;100.00;101531.28;5266526;28;20036;-71
2023/08/14 01:43:44;;;;;;;4.95;3.55;;;;;;;14.93;100.00;101521.84;5266351;28;20095;-71
2023/08/14 01:46:17;;;;;;;7.53;4.10;;;;;;;14.89;100.00;101518.63;5265974;28;20384;-71
2023/08/14 01:48:50;;;;;;;8.85;4.07;;;;;;;14.91;100.00;101515.75;5265811;28;20027;-71
2023/08/14 01:51:23;;;;;;;10.82;3.50;;;;;;;14.85;100.00;101511.91;5266359;28;20070;-71
2023/08/14 01:53:54;;;;;;;6.32;3.70;;;;;;;14.83;100.00;101502.31;5266413;28;20498;-71
2023/08/14 01:56:25;;;;;;;12.55;4.25;;;;;;;14.81;100.00;101509.72;5265672;28;20080;-71
2023/08/14 01:58:55;;;;;;;13.02;4.78;;;;;;;14.79;100.00;101501.81;5266032;28;20023;-71
2023/08/14 02:01:26;;;;;;;6.93;4.57;;;;;;;14.76;100.00;101497.63;5265661;28;20079;-71
2023/08/14 02:03:57;;;;;;;6.45;3.97;;;;;;;14.74;100.00;101501.50;5265930;28;20073;-71
2023/08/14 02:06:27;;;;;;;6.00;3.63;;;;;;;14.71;100.00;101504.59;5265588;28;20016;-71
2023/08/14 02:08:58;;;;;;;7.78;4.47;;;;;;;14.68;100.00;101507.63;5249557;28;20028;-71
2023/08/14 02:11:29;;;;;;;6.35;3.80;;;;;;;14.66;100.00;101505.13;5278177;28;20374;-70
2023/08/14 02:13:59;;;;;;;7.30;3.67;;;;;;;14.63;100.00;101505.47;5281585;28;20461;-71
2023/08/14 02:16:30;;;;;;;8.23;4.45;;;;;;;14.62;100.00;101505.66;5286334;28;20020;-71
2023/08/14 02:19:00;;;;;;;7.07;4.72;;;;;;;14.62;100.00;101497.53;5268709;28;20103;-71
2023/08/14 02:21:31;;;;;;;6.60;3.95;;;;;;;14.59;100.00;101496.03;5265864;28;20024;-71
2023/08/14 02:24:02;;;;;;;7.88;4.32;;;;;;;14.53;100.00;101485.94;5265308;28;20401;-71
2023/08/14 02:26:33;;;;;;;6.28;2.85;;;;;;;14.52;100.00;101488.81;5265267;28;20024;-70
2023/08/14 02:29:04;;;;;;;8.38;3.85;;;;;;;14.50;100.00;101475.47;5272488;28;20043;-71
2023/08/14 02:31:34;;;;;;;6.32;3.80;;;;;;;14.50;100.00;101479.00;5272522;28;20078;-70
2023/08/14 02:34:05;;;;;;;5.13;3.10;;;;;;;14.48;100.00;101472.13;5265877;28;20393;-70
2023/08/14 02:36:36;;;;;;;3.97;2.95;;;;;;;14.46;100.00;101468.75;5264574;28;20024;-71
2023/08/14 02:39:06;;;;;;;6.35;2.63;;;;;;;14.42;100.00;101465.53;5265175;28;20486;-70
2023/08/14 02:41:37;;;;;;;6.50;2.78;;;;;;;14.39;100.00;101457.78;5265334;28;20077;-71
2023/08/14 02:44:08;;;;;;;10.45;3.08;;;;;;;14.37;100.00;101473.34;5265472;28;20481;-71
2023/08/14 02:46:38;;;;;;;12.93;2.70;;;;;;;14.33;100.00;101474.69;5278473;28;20107;-71
2023/08/14 02:49:09;;;;;;;5.70;2.90;;;;;;;14.29;100.00;101475.22;5264827;28;20540;-71
2023/08/14 02:51:39;;;;;;;6.88;3.38;;;;;;;14.28;100.00;101481.63;5265146;28;20024;-71
2023/08/14 02:54:10;;;;;;;6.43;3.83;;;;;;;14.22;100.00;101467.81;5265172;28;20031;-71
2023/08/14 02:56:40;;;;;;;5.57;3.67;;;;;;;14.19;100.00;101468.16;5264488;28;20123;-71
2023/08/14 02:59:11;;;;;;;7.30;3.13;;;;;;;14.18;100.00;101473.75;5264644;28;20062;-70
2023/08/14 03:01:41;;;;;;;109.20;7.00;;;;;;;14.11;100.00;101472.78;5246469;28;20036;-71
2023/08/14 03:04:14;;;;;;;119.03;6.28;;;;;;;14.02;100.00;101474.66;5265619;28;20111;-71
2023/08/14 03:06:44;;;;;;;8.60;2.45;;;;;;;14.00;100.00;101476.66;5277017;28;20466;-70
2023/08/14 03:09:15;;;;;;;6.35;3.33;;;;;;;13.97;100.00;101479.72;5279104;28;21834;-71
2023/08/14 03:11:45;;;;;;;3.90;2.15;;;;;;;13.95;100.00;101485.28;5270627;28;20504;-71
2023/08/14 03:14:16;;;;;;;4.13;2.30;;;;;;;13.95;100.00;101482.56;5278137;28;20081;-71
2023/08/14 03:16:46;;;;;;;4.90;2.78;;;;;;;13.96;100.00;101473.50;5281656;28;20279;-70
2023/08/14 03:19:17;;;;;;;3.70;2.10;;;;;;;13.98;100.00;101473.31;5272117;28;20051;-71
2023/08/14 03:21:50;;;;;;;6.07;2.33;;;;;;;14.00;100.00;101473.97;5272876;28;20120;-71
2023/08/14 03:24:21;;;;;;;4.50;2.25;;;;;;;13.98;100.00;101473.31;5272126;28;20110;-71
2023/08/14 03:26:51;;;;;;;3.75;2.75;;;;;;;13.96;100.00;101470.78;5269774;28;20046;-70
2023/08/14 03:29:22;;;;;;;4.55;3.13;;;;;;;13.94;100.00;101469.28;5264809;28;20030;-70
2023/08/14 03:31:52;;;;;;;6.82;2.88;;;;;;;13.94;100.00;101480.06;5264698;28;20435;-70
2023/08/14 03:34:23;;;;;;;6.22;3.08;;;;;;;13.94;100.00;101477.38;5274436;28;20028;-70
2023/08/14 03:36:53;;;;;;;5.85;2.97;;;;;;;13.92;100.00;101471.31;5267709;28;20115;-70
2023/08/14 03:39:24;;;;;;;7.32;2.95;;;;;;;13.91;100.00;101475.03;5264624;28;20024;-71
2023/08/14 03:41:54;;;;;;;5.05;3.00;;;;;;;13.93;100.00;101476.53;5264728;28;20035;-70
2023/08/14 03:44:25;;;;;;;5.68;3.70;;;;;;;13.93;100.00;101473.00;5264711;28;20020;-70
2023/08/14 03:46:55;;;;;;;6.47;3.55;;;;;;;13.91;100.00;101475.03;5263943;28;20488;-71
2023/08/14 03:49:26;;;;;;;8.95;3.38;;;;;;;13.89;100.00;101477.03;5264418;28;20485;-70
2023/08/14 03:51:56;;;;;;;9.05;3.55;;;;;;;13.90;100.00;101478.72;5272493;28;20024;-70
2023/08/14 03:54:27;;;;;;;7.60;4.00;;;;;;;13.89;100.00;101466.25;5270399;28;20094;-71
2023/08/14 03:56:57;;;;;;;7.45;4.30;;;;;;;13.89;100.00;101468.94;5264080;28;20031;-70
2023/08/14 03:59:28;;;;;;;6.57;3.70;;;;;;;13.86;100.00;101459.34;5264082;28;20028;-71
2023/08/14 04:01:58;;;;;;;9.25;3.65;;;;;;;13.85;100.00;101454.94;5264522;28;20030;-71
2023/08/14 04:04:29;;;;;;;6.80;4.00;;;;;;;13.84;100.00;101444.34;5264315;28;20032;-70
2023/08/14 04:06:59;;;;;;;3.38;2.20;;;;;;;13.83;100.00;101448.06;5264203;28;20020;-70
2023/08/14 04:09:30;;;;;;;3.40;2.63;;;;;;;13.81;100.00;101437.47;5278938;28;20039;-70
2023/08/14 04:12:01;;;;;;;8.18;3.45;;;;;;;13.80;100.00;101440.31;5287342;28;20031;-71
2023/08/14 04:14:32;;;;;;;6.50;2.90;;;;;;;13.79;100.00;101439.47;5268392;28;20051;-70
2023/08/14 04:17:03;;;;;;;3.70;1.90;;;;;;;13.77;100.00;101444.22;5279200;28;20221;-70
2023/08/14 04:19:34;;;;;;;3.08;1.70;;;;;;;13.78;100.00;101431.56;5288947;28;20023;-71
2023/08/14 04:22:04;;;;;;;5.35;2.55;;;;;;;13.79;100.00;101430.53;5286769;28;20381;-71
2023/08/14 04:24:35;;;;;;;4.40;2.38;;;;;;;13.78;100.00;101423.47;5268004;28;20032;-70
2023/08/14 04:27:05;;;;;;;3.90;2.22;;;;;;;13.78;100.00;101421.63;5267894;28;20019;-71
2023/08/14 04:29:36;;;;;;;31.13;4.32;;;;;;;13.78;100.00;101420.78;5268226;28;20534;-71
2023/08/14 04:32:06;;;;;;;103.95;6.07;;;;;;;13.76;100.00;101428.22;5268142;28;20035;-71
2023/08/14 04:34:37;;;;;;;35.55;3.83;;;;;;;13.74;100.00;101421.13;5268020;28;20024;-71
2023/08/14 04:37:07;;;;;;;5.43;3.53;;;;;;;13.74;100.00;101414.88;5267407;28;20488;-71
2023/08/14 04:39:38;;;;;;;4.15;3.00;;;;;;;13.78;100.00;101420.78;5267518;28;20035;-70
2023/08/14 04:42:08;;;;;;;7.07;2.47;;;;;;;13.81;100.00;101413.19;5267717;28;20028;-71
2023/08/14 04:44:38;;;;;;;3.38;1.83;;;;;;;13.83;100.00;101413.00;5267891;28;20024;-71
2023/08/14 04:47:09;;;;;;;3.33;2.17;;;;;;;13.86;100.00;101418.06;5267456;28;20016;-70
2023/08/14 04:49:40;;;;;;;4.38;2.63;;;;;;;13.91;100.00;101415.69;5249599;28;20115;-71
2023/08/14 04:52:10;;;;;;;8.15;2.90;;;;;;;13.95;100.00;101415.13;5267706;28;20020;-71
2023/08/14 04:54:40;;;;;;;5.28;3.10;;;;;;;14.00;100.00;101414.63;5267320;28;20039;-71
2023/08/14 04:57:11;;;;;;;4.35;3.30;;;;;;;14.07;100.00;101417.47;5266923;28;20482;-70
2023/08/14 04:59:42;;;;;;;7.50;3.25;;;;;;;14.15;100.00;101418.25;5267294;28;20028;-71
2023/08/14 05:02:12;;;;;;;5.20;2.58;;;;;;;14.26;100.00;101430.53;5267613;28;20478;-71
2023/08/14 05:04:43;;;;;;;6.57;3.60;;;;;;;14.32;100.00;101426.28;5266735;28;20024;-71
2023/08/14 05:07:13;;;;;;;5.55;3.28;;;;;;;14.38;100.00;101428.28;5267660;28;20462;-71
2023/08/14 05:09:48;;;;;;;6.78;3.70;;;;;;;14.43;100.00;101423.19;5280824;28;20051;-71
2023/08/14 05:12:18;;;;;;;5.15;3.20;;;;;;;14.51;100.00;101425.88;5269129;28;20020;-71
2023/08/14 05:14:52;;;;;;;5.32;3.03;;;;;;;14.54;100.00;101433.63;5279813;28;20473;-71
2023/08/14 05:17:22;;;;;;;6.68;3.65;;;;;;;14.56;100.00;101434.28;5283496;28;20028;-71
2023/08/14 05:19:53;;;;;;;5.88;3.53;;;;;;;14.57;100.00;101432.44;5267230;28;20028;-71
2023/08/14 05:22:23;;;;;;;13.70;4.57;;;;;;;14.61;100.00;101437.31;5266614;28;20447;-71
2023/08/14 05:24:54;;;;;;;7.78;4.50;;;;;;;14.62;100.00;101432.75;5266823;28;20073;-71
2023/08/14 05:27:24;;;;;;;7.35;3.65;;;;;;;14.64;100.00;101433.38;5265985;28;20497;-71
2023/08/14 05:29:55;;;;;;;6.78;3.58;;;;;;;14.65;100.00;101435.06;5266981;28;20040;-71
2023/08/14 05:32:25;;;;;;;5.13;3.40;;;;;;;14.67;100.00;101446.53;5266970;28;20282;-71
2023/08/14 05:34:56;;;;;;;3.60;2.60;;;;;;;14.67;100.00;101443.84;5266683;28;20469;-71
2023/08/14 05:37:26;;;;;;;5.43;3.75;;;;;;;14.68;100.00;101450.91;5266727;28;20089;-71
2023/08/14 05:39:57;;;;;;;6.03;3.50;;;;;;;14.72;100.00;101452.25;5266120;28;20016;-71
2023/08/14 05:42:27;;;;;;;6.22;4.43;;;;;;;14.80;100.00;101454.03;5266548;28;20024;-71
2023/08/14 05:44:58;;;;;;;7.22;4.75;;;;;;;14.91;100.00;101451.78;5266553;28;20107;-71
2023/08/14 05:47:28;;;;;;;11.05;5.50;;;;;;;15.02;100.00;101437.84;5266308;28;20020;-71
2023/08/14 05:49:59;;;;;;;11.38;5.82;;;;;;;15.15;100.00;101436.38;5280003;28;20031;-71
2023/08/14 05:52:29;;;;;;;11.65;6.55;;;;;;;15.31;100.00;101447.03;5266058;28;20084;-71
2023/08/14 05:55:00;;;;;;;10.45;6.50;;;;;;;15.52;100.00;101440.97;5266131;28;20024;-71
2023/08/14 05:57:30;;;;;;;15.25;7.40;;;;;;;15.80;100.00;101444.72;5265782;28;20028;-71
2023/08/14 06:00:01;;;;;;;15.18;8.30;;;;;;;16.31;100.00;101444.81;5266130;28;20031;-71
2023/08/14 06:02:31;;;;;;;23.15;8.45;;;;;;;17.16;100.00;101437.78;5266272;28;20027;-71
2023/08/14 06:05:02;;;;;;;18.67;6.78;;;;;;;18.03;100.00;101442.00;5265765;28;20036;-71
2023/08/14 06:07:32;;;;;;;11.15;5.65;;;;;;;18.82;100.00;101439.56;5281885;28;20027;-71
2023/08/14 06:10:05;;;;;;;9.75;4.68;;;;;;;19.47;100.00;101423.50;5279270;28;20024;-72
2023/08/14 06:12:36;;;;;;;8.77;4.57;;;;;;;19.63;100.00;101423.09;5268997;28;20020;-71
2023/08/14 06:15:07;;;;;;;9.63;4.90;;;;;;;19.66;100.00;101419.94;5277430;28;20023;-72
2023/08/14 06:17:38;;;;;;;9.35;5.82;;;;;;;19.64;100.00;101434.81;5280573;28;20035;-72
2023/08/14 06:20:10;;;;;;;8.98;4.68;;;;;;;19.71;100.00;101430.19;5265859;28;20489;-72
2023/08/14 06:22:59;;;;;;;9.20;5.00;;;;;;;20.02;100.00;101426.75;5266003;28;20027;-72
2023/08/14 06:25:31;;;;;;;9.93;5.07;;;;;;;20.65;100.00;101428.81;5265394;28;20061;-72
2023/08/14 06:28:01;;;;;;;10.45;4.80;;;;;;;21.15;100.00;101426.16;5265374;28;20031;-72
2023/08/14 06:30:32;;;;;;;7.20;4.55;;;;;;;21.62;100.00;101426.59;5266129;28;20462;-72
2023/08/14 06:33:03;;;;;;;8.85;4.38;;;;;;;22.07;100.00;101420.88;5265044;28;20024;-72
2023/08/14 06:35:33;;;;;;;6.68;4.20;;;;;;;22.25;100.00;101415.44;5265167;28;20028;-72
2023/08/14 06:38:04;;;;;;;9.75;4.05;;;;;;;22.20;100.00;101410.66;5265873;28;20519;-72
2023/08/14 06:40:34;;;;;;;10.23;4.18;;;;;;;21.93;100.00;101403.78;5278984;28;20027;-72
2023/08/14 06:43:06;;;;;;;13.77;3.97;;;;;;;21.39;100.00;101411.72;5265699;28;20373;-72
2023/08/14 06:45:36;;;;;;;8.68;4.53;;;;;;;20.88;100.00;101415.47;5265310;28;20066;-72
2023/08/14 06:48:07;;;;;;;8.32;4.38;;;;;;;20.40;100.00;101421.38;5265143;28;20048;-72
2023/08/14 06:50:37;;;;;;;9.73;4.55;;;;;;;20.01;100.00;101427.81;5265328;28;20489;-71
2023/08/14 06:53:08;;;;;;;14.73;4.63;;;;;;;19.78;100.00;101432.91;5264963;28;20024;-72
2023/08/14 06:55:38;;;;;;;11.73;4.00;;;;;;;19.59;100.00;101440.03;5264855;28;20016;-72
2023/08/14 06:58:09;;;;;;;12.65;4.57;;;;;;;19.47;100.00;101436.25;5265654;28;20500;-72
2023/08/14 07:00:39;;;;;;;11.30;4.60;;;;;;;19.64;100.00;101423.94;5265576;28;20032;-72
2023/08/14 07:03:10;;;;;;;7.28;4.25;;;;;;;19.72;100.00;101415.53;5265949;28;20031;-71
2023/08/14 07:05:40;;;;;;;9.45;4.13;;;;;;;19.83;100.00;101424.91;5264367;28;20423;-71
2023/08/14 07:08:11;;;;;;;8.70;3.92;;;;;;;20.58;100.00;101420.69;5265863;28;20046;-71
2023/08/14 07:10:41;;;;;;;11.10;3.90;;;;;;;21.60;100.00;101423.28;5280601;28;20028;-71
2023/08/14 07:13:12;;;;;;;6.55;3.17;;;;;;;22.53;100.00;101411.25;5277168;28;20016;-72
2023/08/14 07:15:45;;;;;;;7.05;3.33;;;;;;;23.33;100.00;101410.88;5269498;28;20052;-72
2023/08/14 07:18:18;;;;;;;7.57;2.97;;;;;;;23.77;100.00;101403.97;5265234;28;20034;-72
2023/08/14 07:20:48;;;;;;;12.77;2.92;;;;;;;24.17;100.00;101412.25;5265008;28;20481;-72
2023/08/14 07:23:20;;;;;;;7.97;2.85;;;;;;;24.62;100.00;101416.16;5265272;28;20023;-72
2023/08/14 07:25:50;;;;;;;9.65;2.50;;;;;;;24.70;100.00;101413.84;5264559;28;20027;-72
2023/08/14 07:28:21;;;;;;;4.55;2.03;;;;;;;24.84;100.00;101419.00;5264924;28;20032;-72
2023/08/14 07:30:51;;;;;;;7.57;2.22;;;;;;;24.98;100.00;101412.97;5265202;28;20531;-72
2023/08/14 07:33:22;;;;;;;4.25;1.70;;;;;;;25.14;100.00;101402.25;5265456;28;20024;-72
2023/08/14 07:35:52;;;;;;;8.65;2.38;;;;;;;25.48;100.00;101403.06;5264727;28;20083;-72
2023/08/14 07:38:23;;;;;;;7.00;2.20;;;;;;;25.10;100.00;101403.84;5265689;28;20032;-72
2023/08/14 07:40:55;;;;;;;5.72;2.10;;;;;;;25.07;100.00;101391.47;5264562;28;20436;-73
2023/08/14 07:43:25;;;;;;;12.05;1.92;;;;;;;25.29;100.00;101395.09;5269812;28;20111;-73
2023/08/14 07:45:56;;;;;;;6.05;2.17;;;;;;;25.23;100.00;101398.03;5278965;28;20537;-73
2023/08/14 07:48:26;;;;;;;7.90;1.92;;;;;;;25.32;100.00;101404.75;5269910;28;20531;-73
2023/08/14 07:50:57;;;;;;;5.72;1.58;;;;;;;25.69;100.00;101394.03;5269337;28;20051;-73
2023/08/14 07:53:27;;;;;;;4.05;1.58;;;;;;;25.78;100.00;101399.97;5268237;28;20020;-73
2023/08/14 07:55:58;;;;;;;6.38;1.77;;;;;;;25.75;100.00;101395.78;5268195;28;20096;-73
2023/08/14 07:58:28;;;;;;;7.85;1.88;;;;;;;25.69;100.00;101401.44;5268965;28;20020;-72
2023/08/14 08:00:59;;;;;;;7.00;1.83;;;;;;;25.72;100.00;101406.44;5268945;28;20020;-72
2023/08/14 08:03:29;;;;;;;6.30;1.80;;;;;;;26.17;100.00;101405.41;5251035;28;20028;-73
2023/08/14 08:06:00;;;;;;;7.25;1.92;;;;;;;26.05;100.00;101398.09;5281166;28;20313;-73
2023/08/14 08:08:30;;;;;;;11.40;1.95;;;;;;;26.11;100.00;101406.44;5280261;28;20050;-73
2023/08/14 08:11:01;;;;;;;6.45;2.05;;;;;;;26.39;100.00;101400.69;5279121;28;20019;-73
2023/08/14 08:13:31;;;;;;;3.42;1.67;;;;;;;26.53;100.00;101409.41;5278104;28;20058;-73
2023/08/14 08:16:02;;;;;;;6.18;1.52;;;;;;;26.35;100.00;101416.88;5275078;28;20028;-73
2023/08/14 08:18:32;;;;;;;9.27;2.67;;;;;;;26.80;100.00;101412.97;5269064;28;20472;-73
2023/08/14 08:21:03;;;;;;;8.18;2.00;;;;;;;26.85;100.00;101410.28;5269970;28;20081;-73
2023/08/14 08:23:33;;;;;;;6.13;1.40;;;;;;;26.71;100.00;101410.97;5269335;28;20028;-74
2023/08/14 08:26:04;;;;;;;4.20;1.45;;;;;;;26.83;100.00;101406.13;5268947;28;20016;-73
2023/08/14 08:28:34;;;;;;;9.30;2.10;;;;;;;27.03;100.00;101400.81;5282201;28;20527;-73
2023/08/14 08:31:05;;;;;;;3.83;1.50;;;;;;;27.39;100.00;101397.53;5268770;28;20028;-73
2023/08/14 08:33:35;;;;;;;5.90;1.83;;;;;;;27.73;100.00;101400.81;5269546;28;20382;-73
2023/08/14 08:36:06;;;;;;;5.35;1.38;;;;;;;27.93;100.00;101398.13;5268354;28;20107;-73
2023/08/14 08:38:36;;;;;;;5.72;1.67;;;;;;;28.12;100.00;101402.09;5283996;28;20027;-74
2023/08/14 08:41:07;;;;;;;4.50;1.88;;;;;;;28.01;100.00;101392.09;5288300;28;20163;-74
2023/08/14 08:43:39;;;;;;;6.05;1.73;;;;;;;27.81;100.00;101397.50;5284221;28;20046;-73
2023/08/14 08:46:12;;;;;;;6.43;1.95;;;;;;;27.79;100.00;101399.72;5268371;28;20114;-71
2023/08/14 08:48:43;;;;;;;8.48;1.77;;;;;;;27.73;100.00;101398.88;5280715;28;20020;-72
2023/08/14 08:51:14;;;;;;;4.43;1.30;;;;;;;27.87;100.00;101401.97;5268340;28;20032;-72
2023/08/14 08:53:45;;;;;;;3.65;1.75;;;;;;;28.13;100.00;101394.63;5267752;28;20420;-72
2023/08/14 08:56:17;;;;;;;4.35;1.50;;;;;;;28.48;100.00;101406.91;5267241;28;20043;-72
2023/08/14 08:58:48;;;;;;;5.85;1.70;;;;;;;28.35;100.00;101406.31;5267758;28;20020;-72
2023/08/14 09:01:20;;;;;;;6.03;1.88;;;;;;;28.16;100.00;101405.09;5269723;28;20043;-72
2023/08/14 09:03:51;;;;;;;8.88;1.70;;;;;;;27.94;100.00;101401.72;5278705;28;20023;-72
2023/08/14 09:06:21;;;;;;;5.30;1.55;;;;;;;28.11;100.00;101400.44;5271838;28;20107;-72
2023/08/14 09:08:52;;;;;;;8.18;1.92;;;;;;;28.09;100.00;101399.03;5273934;28;20397;-72
2023/08/14 09:11:24;;;;;;;5.47;1.85;;;;;;;28.28;100.00;101399.38;5277973;28;20077;-72
2023/08/14 09:13:55;;;;;;;5.25;1.70;;;;;;;28.28;100.00;101391.09;5267906;28;20031;-72
2023/08/14 09:16:27;;;;;;;7.20;2.00;;;;;;;28.47;100.00;101388.69;5281408;28;20027;-71
2023/08/14 09:18:58;;;;;;;9.73;2.20;;;;;;;28.32;100.00;101393.03;5270866;28;20039;-71
2023/08/14 09:21:30;;;;;;;6.53;1.65;;;;;;;28.59;100.00;101386.50;5266942;28;20038;-72
2023/08/14 09:24:00;;;;;;;7.10;1.60;;;;;;;28.54;100.00;101389.25;5268040;28;20104;-73
2023/08/14 09:26:31;;;;;;;6.80;1.90;;;;;;;28.75;100.00;101387.34;5267302;28;20412;-73
2023/08/14 09:29:02;;;;;;;7.38;1.77;;;;;;;29.07;100.00;101387.94;5268380;28;20424;-73
2023/08/14 09:31:33;;;;;;;10.43;2.30;;;;;;;29.24;100.00;101395.09;5278554;28;20016;-74
2023/08/14 09:34:03;;;;;;;6.70;1.40;;;;;;;29.55;100.00;101382.09;5285745;28;20028;-74
2023/08/14 09:36:34;;;;;;;6.38;1.90;;;;;;;29.54;100.00;101385.97;5284813;28;20027;-74
2023/08/14 09:39:04;;;;;;;7.50;2.20;;;;;;;29.46;100.00;101386.50;5286620;28;20023;-73
2023/08/14 09:41:36;;;;;;;7.80;1.83;;;;;;;29.35;100.00;101378.22;5285684;28;20485;-73
2023/08/14 09:44:07;;;;;;;4.68;1.55;;;;;;;28.77;100.00;101379.63;5286630;28;20027;-73
2023/08/14 09:46:37;;;;;;;10.98;2.00;;;;;;;28.92;100.00;101368.59;5285063;28;20341;-74
2023/08/14 09:49:08;;;;;;;6.25;1.70;;;;;;;29.09;100.00;101366.38;5286696;28;20053;-73
2023/08/14 09:51:39;;;;;;;6.47;1.42;;;;;;;29.10;100.00;101354.22;5269448;28;20052;-73
2023/08/14 09:54:10;;;;;;;4.75;1.70;;;;;;;29.02;100.00;101359.47;5266982;28;20373;-73
2023/08/14 09:56:40;;;;;;;6.13;1.80;;;;;;;29.26;100.00;101348.69;5267098;28;20035;-74
2023/08/14 09:59:11;;;;;;;5.78;1.60;;;;;;;29.39;100.00;101346.16;5266985;28;20016;-74
2023/08/14 10:01:41;;;;;;;4.72;1.65;;;;;;;29.41;100.00;101332.88;5273275;28;20118;-74
2023/08/14 10:04:12;;;;;;;6.28;1.77;;;;;;;28.42;100.00;101341.78;5285418;28;20019;-73
2023/08/14 10:06:44;;;;;;;8.80;1.65;;;;;;;28.48;100.00;101329.66;5277980;28;20023;-72
2023/08/14 10:09:15;;;;;;;8.57;2.05;;;;;;;28.41;100.00;101332.66;5268426;28;20020;-71
2023/08/14 10:11:47;;;;;;;2.92;1.17;;;;;;;28.48;100.00;101324.13;5269282;28;20023;-72
2023/08/14 10:14:21;;;;;;;5.72;1.42;;;;;;;28.66;100.00;101334.59;5271641;28;20073;-72
2023/08/14 10:16:54;;;;;;;7.03;1.40;;;;;;;28.71;100.00;101331.03;5273780;28;20043;-72
2023/08/14 10:19:27;;;;;;;3.28;1.45;;;;;;;28.69;100.00;101336.00;5273079;28;20031;-71
2023/08/14 10:21:59;;;;;;;5.65;1.80;;;;;;;28.53;100.00;101333.22;5285825;28;20023;-71
2023/08/14 10:24:29;;;;;;;5.95;1.40;;;;;;;28.89;100.00;101322.19;5266116;28;20090;-73
2023/08/14 10:27:01;;;;;;;6.00;1.70;;;;;;;28.82;100.00;101327.19;5282399;28;20020;-72
2023/08/14 10:29:34;;;;;;;5.63;1.80;;;;;;;29.00;100.00;101326.63;5287156;28;20031;-72
2023/08/14 10:32:06;;;;;;;4.95;1.83;;;;;;;29.15;100.00;101329.34;5268054;28;20054;-74
2023/08/14 10:34:37;;;;;;;7.43;1.95;;;;;;;29.18;100.00;101322.47;5265336;28;20020;-73
2023/08/14 10:37:08;;;;;;;3.50;1.55;;;;;;;29.03;100.00;101326.06;5264547;28;20022;-74
2023/08/14 10:39:38;;;;;;;5.40;1.60;;;;;;;29.21;100.00;101329.34;5265137;28;20482;-74
2023/08/14 10:42:11;;;;;;;5.75;1.55;;;;;;;28.73;100.00;101332.41;5265292;28;20020;-74
2023/08/14 10:44:43;;;;;;;6.13;1.85;;;;;;;28.80;100.00;101326.59;5265291;28;20531;-74
2023/08/14 10:47:14;;;;;;;5.00;1.58;;;;;;;28.81;100.00;101331.84;5265028;28;20016;-74
2023/08/14 10:49:45;;;;;;;6.78;1.80;;;;;;;29.02;100.00;101324.44;5264984;28;20019;-74
2023/08/14 10:52:16;;;;;;;5.32;1.73;;;;;;;29.02;100.00;101324.44;5265382;28;20035;-74
2023/08/14 10:55:13;;;;;;;9.80;1.63;;;;;;;28.40;100.00;101319.97;5264672;28;20047;-74
2023/08/14 10:57:45;;;;;;;9.00;1.85;;;;;;;28.61;100.00;101316.09;5264823;28;20039;-74
2023/08/14 11:00:43;;;;;;;7.40;1.92;;;;;;;28.50;100.00;101310.88;5265004;28;20024;-74
2023/08/14 11:03:14;;;;;;;7.13;1.88;;;;;;;28.87;100.00;101313.38;5254342;28;20028;-75
2023/08/14 11:05:44;;;;;;;4.53;1.50;;;;;;;28.65;100.00;101306.19;5279175;28;20026;-74
2023/08/14 11:08:16;;;;;;;6.72;1.60;;;;;;;28.96;100.00;101308.13;5272962;28;20052;-74
2023/08/14 11:10:49;;;;;;;8.38;1.70;;;;;;;28.51;100.00;101302.31;5280243;28;20019;-74
2023/08/14 11:13:19;;;;;;;5.30;1.60;;;;;;;28.60;100.00;101317.22;5278656;28;20035;-74
2023/08/14 11:15:50;;;;;;;6.30;1.50;;;;;;;28.56;100.00;101318.88;5280600;28;20034;-74
2023/08/14 11:18:21;;;;;;;8.20;1.80;;;;;;;28.75;100.00;101310.88;5281077;28;20084;-73
2023/08/14 11:20:51;;;;;;;7.22;1.77;;;;;;;28.81;100.00;101308.94;5282199;28;20031;-74
2023/08/14 11:23:22;;;;;;;5.43;1.38;;;;;;;28.84;100.00;101316.66;5274881;28;20314;-74
2023/08/14 11:25:55;;;;;;;6.00;1.75;;;;;;;28.86;100.00;101315.28;5278312;28;20023;-74
2023/08/14 11:28:25;;;;;;;4.18;1.30;;;;;;;29.05;100.00;101301.75;5280995;28;20042;-74
2023/08/14 11:30:55;;;;;;;6.40;1.85;;;;;;;29.12;100.00;101295.97;5280291;28;20015;-74
2023/08/14 11:33:26;;;;;;;4.32;1.60;;;;;;;29.35;100.00;101294.50;5275557;28;20022;-74
2023/08/14 11:35:56;;;;;;;6.50;1.73;;;;;;;29.10;100.00;101287.94;5272929;28;20385;-74